Time,TemperatureF,DewpointF,PressureIn,WindDirection,WindDirectionDegrees,WindSpeedMPH,WindSpeedGustMPH,Humidity,HourlyPrecipIn,Conditions,Clouds,dailyrainin,SoftwareType,DateUTC
2013-02-08 00:00:00,72.9,61.7,30.05,East,90,8.0,21.0,68,0.00,,---,0.00,VWS V14.01,2013-02-08 10:00:00,
2013-02-08 00:30:00,73.4,62.6,30.03,ESE,112,8.0,21.0,69,0.00,,---,0.00,VWS V14.01,2013-02-08 10:30:00,
2013-02-08 01:00:00,73.4,62.2,30.02,East,90,8.0,21.0,68,0.00,,---,0.00,VWS V14.01,2013-02-08 11:00:00,
2013-02-08 01:30:00,73.0,61.8,30.01,East,90,10.0,25.0,68,0.00,,---,0.00,VWS V14.01,2013-02-08 11:30:00,
2013-02-08 02:00:00,72.7,62.4,30.00,East,90,5.0,14.0,70,0.00,,---,0.00,VWS V14.01,2013-02-08 12:00:00,
2013-02-08 02:30:00,73.1,61.9,30.01,NE,45,5.0,16.0,68,0.00,,---,0.00,VWS V14.01,2013-02-08 12:30:00,
2013-02-08 03:00:00,72.8,63.7,30.00,NE,45,2.0,7.0,73,0.00,,---,0.00,VWS V14.01,2013-02-08 13:00:00,
2013-02-08 03:30:00,71.3,62.2,30.00,NNE,22,1.0,10.0,73,0.00,,---,0.00,VWS V14.01,2013-02-08 13:30:00,
2013-02-08 04:00:00,73.0,60.5,30.00,East,90,7.0,17.0,65,0.00,,---,0.00,VWS V14.01,2013-02-08 14:00:00,
2013-02-08 04:30:00,72.2,59.8,30.00,East,90,7.0,18.0,65,0.00,,---,0.00,VWS V14.01,2013-02-08 14:30:00,
2013-02-08 05:00:00,70.9,58.1,30.01,ESE,112,6.0,15.0,64,0.00,,---,0.00,VWS V14.01,2013-02-08 15:00:00,
2013-02-08 05:30:00,70.5,60.7,30.03,East,90,4.0,11.0,71,0.00,,---,0.00,VWS V14.01,2013-02-08 15:30:00,
2013-02-08 06:00:00,70.9,59.8,30.05,ESE,112,5.0,15.0,68,0.00,,---,0.00,VWS V14.01,2013-02-08 16:00:00,
2013-02-08 06:30:00,71.6,59.7,30.06,East,90,6.0,14.0,66,0.00,,---,0.00,VWS V14.01,2013-02-08 16:30:00,
2013-02-08 07:00:00,74.8,62.7,30.07,East,90,3.0,14.0,66,0.00,,---,0.00,VWS V14.01,2013-02-08 17:00:00,
2013-02-08 07:30:00,75.4,64.1,30.08,ENE,68,2.0,9.0,68,0.00,,---,0.00,VWS V14.01,2013-02-08 17:30:00,
2013-02-08 08:00:00,79.0,61.0,30.08,NE,45,3.0,13.0,54,0.00,,---,0.00,VWS V14.01,2013-02-08 18:00:00,
2013-02-08 08:30:00,81.1,63.9,30.08,ENE,68,6.0,16.0,56,0.00,,---,0.00,VWS V14.01,2013-02-08 18:30:00,
2013-02-08 09:00:00,80.6,65.0,30.09,NNW,338,4.0,14.0,59,0.00,,---,0.00,VWS V14.01,2013-02-08 19:00:00,
2013-02-08 09:30:00,77.6,64.0,30.08,NNW,338,7.0,14.0,63,0.00,,---,0.00,VWS V14.01,2013-02-08 19:30:00,
2013-02-08 10:00:00,78.7,62.7,30.06,WNW,292,7.0,18.0,58,0.00,,---,0.00,VWS V14.01,2013-02-08 20:00:00,
2013-02-08 10:30:00,78.0,65.7,30.06,WNW,292,7.0,13.0,66,0.00,,---,0.00,VWS V14.01,2013-02-08 20:30:00,
2013-02-08 11:00:00,77.7,68.4,30.05,West,270,6.0,10.0,73,0.00,,---,0.00,VWS V14.01,2013-02-08 21:00:00,
2013-02-08 11:30:00,78.6,69.2,30.04,West,270,4.0,6.0,73,0.00,,---,0.00,VWS V14.01,2013-02-08 21:30:00,
2013-02-08 12:00:00,78.3,68.1,30.01,West,270,4.0,6.0,71,0.00,,---,0.00,VWS V14.01,2013-02-08 22:00:00,
2013-02-08 12:30:00,78.7,67.7,30.01,West,270,4.0,7.0,69,0.00,,---,0.00,VWS V14.01,2013-02-08 22:30:00,
2013-02-08 13:00:00,78.7,67.3,30.00,West,270,4.0,6.0,68,0.00,,---,0.00,VWS V14.01,2013-02-08 23:00:00,
2013-02-08 13:30:00,79.0,67.1,29.99,West,270,4.0,6.0,67,0.00,,---,0.00,VWS V14.01,2013-02-08 23:30:00,
2013-02-08 14:00:00,79.0,65.3,29.99,West,270,3.0,5.0,63,0.00,,---,0.00,VWS V14.01,2013-02-09 00:00:00,
2013-02-08 14:30:00,78.9,66.2,29.98,West,270,3.0,5.0,65,0.00,,---,0.00,VWS V14.01,2013-02-09 00:30:00,
2013-02-08 15:00:00,78.6,68.0,29.98,West,270,3.0,5.0,70,0.00,,---,0.00,VWS V14.01,2013-02-09 01:00:00,
2013-02-08 15:30:00,78.5,67.5,29.99,West,270,2.0,5.0,69,0.00,,---,0.00,VWS V14.01,2013-02-09 01:30:00,
2013-02-08 16:00:00,78.2,67.2,30.00,West,270,2.0,5.0,69,0.00,,---,0.00,VWS V14.01,2013-02-09 02:00:00,
2013-02-08 16:30:00,77.6,65.3,30.00,SSW,202,1.0,5.0,66,0.00,,---,0.00,VWS V14.01,2013-02-09 02:30:00,
2013-02-08 17:00:00,77.1,65.7,30.01,SSW,202,1.0,6.0,68,0.00,,---,0.00,VWS V14.01,2013-02-09 03:00:00,
2013-02-08 17:30:00,76.2,65.3,30.01,SSE,158,1.0,6.0,69,0.00,,---,0.00,VWS V14.01,2013-02-09 03:30:00,
2013-02-08 18:00:00,76.0,65.5,30.03,SSE,158,0.0,3.0,70,0.00,,---,0.00,VWS V14.01,2013-02-09 04:00:00,
2013-02-08 18:30:00,75.4,64.1,30.03,SSE,158,1.0,4.0,68,0.00,,---,0.00,VWS V14.01,2013-02-09 04:30:00,
2013-02-08 19:00:00,74.9,62.3,30.03,ESE,112,1.0,7.0,65,0.00,,---,0.00,VWS V14.01,2013-02-09 05:00:00,
2013-02-08 19:30:00,74.3,61.3,30.04,East,90,2.0,7.0,64,0.00,,---,0.00,VWS V14.01,2013-02-09 05:30:00,
2013-02-08 20:00:00,73.0,61.0,30.05,East,90,1.0,5.0,66,0.00,,---,0.00,VWS V14.01,2013-02-09 06:00:00,
2013-02-08 20:30:00,72.4,60.8,30.05,ENE,68,0.0,3.0,67,0.00,,---,0.00,VWS V14.01,2013-02-09 06:30:00,
2013-02-08 21:00:00,72.6,60.2,30.05,ENE,68,1.0,6.0,65,0.00,,---,0.00,VWS V14.01,2013-02-09 07:00:00,
2013-02-08 21:30:00,72.9,60.0,30.05,ENE,68,2.0,7.0,64,0.00,,---,0.00,VWS V14.01,2013-02-09 07:30:00,
2013-02-08 22:00:00,72.4,60.0,30.05,East,90,1.0,7.0,65,0.00,,---,0.00,VWS V14.01,2013-02-09 08:00:00,
2013-02-08 22:30:00,71.6,59.2,30.05,East,90,1.0,3.0,65,0.00,,---,0.00,VWS V14.01,2013-02-09 08:30:00,
2013-02-08 23:00:00,69.8,59.2,30.04,East,90,1.0,3.0,69,0.00,,---,0.00,VWS V14.01,2013-02-09 09:00:00,
2013-02-08 23:30:00,70.4,58.9,30.05,East,90,2.0,8.0,67,0.00,,---,0.00,VWS V14.01,2013-02-09 09:30:00,